sensor_id;sensor_type;location;lat;lon;timestamp;P1;durP1;ratioP1;P2;durP2;ratioP2
4424;SDS011;2225;53.568;13.266;2023-01-29T00:02:07;16.87;;;9.97;;
4424;SDS011;2225;53.568;13.266;2023-01-29T00:04:34;20.73;;;10.93;;
4424;SDS011;2225;53.568;13.266;2023-01-29T00:07:01;23.70;;;10.93;;
4424;SDS011;2225;53.568;13.266;2023-01-29T00:09:28;20.40;;;11.63;;
4424;SDS011;2225;53.568;13.266;2023-01-29T00:11:56;18.23;;;11.20;;
4424;SDS011;2225;53.568;13.266;2023-01-29T00:14:23;18.73;;;11.30;;
4424;SDS011;2225;53.568;13.266;2023-01-29T00:16:52;20.30;;;11.10;;
4424;SDS011;2225;53.568;13.266;2023-01-29T00:19:20;20.27;;;11.57;;
4424;SDS011;2225;53.568;13.266;2023-01-29T00:21:46;17.03;;;11.13;;
4424;SDS011;2225;53.568;13.266;2023-01-29T00:24:13;17.83;;;11.00;;
4424;SDS011;2225;53.568;13.266;2023-01-29T00:26:40;19.80;;;11.20;;
4424;SDS011;2225;53.568;13.266;2023-01-29T00:29:08;20.47;;;12.03;;
4424;SDS011;2225;53.568;13.266;2023-01-29T00:31:35;20.00;;;11.60;;
4424;SDS011;2225;53.568;13.266;2023-01-29T00:34:02;20.07;;;11.90;;
4424;SDS011;2225;53.568;13.266;2023-01-29T00:36:29;23.33;;;11.90;;
4424;SDS011;2225;53.568;13.266;2023-01-29T00:38:56;18.60;;;11.77;;
4424;SDS011;2225;53.568;13.266;2023-01-29T00:41:27;24.17;;;13.07;;
4424;SDS011;2225;53.568;13.266;2023-01-29T00:44:14;19.60;;;11.90;;
4424;SDS011;2225;53.568;13.266;2023-01-29T00:47:00;18.87;;;10.50;;
4424;SDS011;2225;53.568;13.266;2023-01-29T00:49:28;19.43;;;11.77;;
4424;SDS011;2225;53.568;13.266;2023-01-29T00:51:56;21.20;;;12.67;;
4424;SDS011;2225;53.568;13.266;2023-01-29T00:54:42;23.70;;;12.97;;
4424;SDS011;2225;53.568;13.266;2023-01-29T00:57:09;18.27;;;11.67;;
4424;SDS011;2225;53.568;13.266;2023-01-29T00:59:36;19.07;;;12.10;;
4424;SDS011;2225;53.568;13.266;2023-01-29T01:02:03;19.67;;;12.10;;
4424;SDS011;2225;53.568;13.266;2023-01-29T01:04:49;18.00;;;11.47;;
4424;SDS011;2225;53.568;13.266;2023-01-29T01:07:16;22.90;;;12.57;;
4424;SDS011;2225;53.568;13.266;2023-01-29T01:09:43;22.00;;;12.47;;
4424;SDS011;2225;53.568;13.266;2023-01-29T01:12:28;21.67;;;11.77;;
4424;SDS011;2225;53.568;13.266;2023-01-29T01:14:55;16.97;;;11.37;;
4424;SDS011;2225;53.568;13.266;2023-01-29T01:17:23;28.27;;;12.50;;
4424;SDS011;2225;53.568;13.266;2023-01-29T01:19:50;26.13;;;12.93;;
4424;SDS011;2225;53.568;13.266;2023-01-29T01:22:17;19.50;;;13.00;;
4424;SDS011;2225;53.568;13.266;2023-01-29T01:24:44;23.20;;;13.83;;
4424;SDS011;2225;53.568;13.266;2023-01-29T01:27:11;23.13;;;11.67;;
4424;SDS011;2225;53.568;13.266;2023-01-29T01:29:38;17.90;;;11.50;;
4424;SDS011;2225;53.568;13.266;2023-01-29T01:32:06;19.13;;;12.07;;
4424;SDS011;2225;53.568;13.266;2023-01-29T01:34:33;20.97;;;11.37;;
4424;SDS011;2225;53.568;13.266;2023-01-29T01:37:00;19.00;;;11.77;;
4424;SDS011;2225;53.568;13.266;2023-01-29T01:39:26;19.80;;;12.30;;
4424;SDS011;2225;53.568;13.266;2023-01-29T01:41:54;20.93;;;12.40;;
4424;SDS011;2225;53.568;13.266;2023-01-29T01:47:32;25.03;;;12.63;;
4424;SDS011;2225;53.568;13.266;2023-01-29T01:50:15;25.50;;;13.00;;
4424;SDS011;2225;53.568;13.266;2023-01-29T01:52:55;23.97;;;13.37;;
4424;SDS011;2225;53.568;13.266;2023-01-29T01:55:30;18.43;;;11.90;;
4424;SDS011;2225;53.568;13.266;2023-01-29T01:58:08;24.17;;;13.10;;
4424;SDS011;2225;53.568;13.266;2023-01-29T02:00:38;20.20;;;12.37;;
4424;SDS011;2225;53.568;13.266;2023-01-29T02:03:05;22.83;;;13.03;;
4424;SDS011;2225;53.568;13.266;2023-01-29T02:05:53;18.20;;;12.50;;
4424;SDS011;2225;53.568;13.266;2023-01-29T02:08:43;18.97;;;12.23;;
4424;SDS011;2225;53.568;13.266;2023-01-29T02:11:37;21.83;;;13.23;;
4424;SDS011;2225;53.568;13.266;2023-01-29T02:14:04;21.27;;;13.50;;
4424;SDS011;2225;53.568;13.266;2023-01-29T02:16:33;21.00;;;12.80;;
4424;SDS011;2225;53.568;13.266;2023-01-29T02:19:02;22.17;;;13.10;;
4424;SDS011;2225;53.568;13.266;2023-01-29T02:21:49;19.60;;;12.53;;
4424;SDS011;2225;53.568;13.266;2023-01-29T02:24:40;22.67;;;12.83;;
4424;SDS011;2225;53.568;13.266;2023-01-29T02:30:36;27.90;;;14.93;;
4424;SDS011;2225;53.568;13.266;2023-01-29T02:33:45;25.77;;;14.97;;
4424;SDS011;2225;53.568;13.266;2023-01-29T02:36:44;23.40;;;14.20;;
4424;SDS011;2225;53.568;13.266;2023-01-29T02:40:11;26.57;;;15.80;;
4424;SDS011;2225;53.568;13.266;2023-01-29T02:43:07;23.37;;;14.60;;
4424;SDS011;2225;53.568;13.266;2023-01-29T02:45:57;23.47;;;14.60;;
4424;SDS011;2225;53.568;13.266;2023-01-29T02:48:39;25.40;;;14.23;;
4424;SDS011;2225;53.568;13.266;2023-01-29T02:51:20;30.27;;;13.97;;
4424;SDS011;2225;53.568;13.266;2023-01-29T02:54:16;23.40;;;15.23;;
4424;SDS011;2225;53.568;13.266;2023-01-29T02:56:56;31.30;;;16.00;;
4424;SDS011;2225;53.568;13.266;2023-01-29T02:59:43;23.73;;;14.27;;
4424;SDS011;2225;53.568;13.266;2023-01-29T03:02:20;23.17;;;14.40;;
4424;SDS011;2225;53.568;13.266;2023-01-29T03:05:02;26.17;;;14.87;;
4424;SDS011;2225;53.568;13.266;2023-01-29T03:07:34;28.00;;;15.37;;
4424;SDS011;2225;53.568;13.266;2023-01-29T03:10:33;25.43;;;15.00;;
4424;SDS011;2225;53.568;13.266;2023-01-29T03:13:12;22.20;;;14.83;;
4424;SDS011;2225;53.568;13.266;2023-01-29T03:15:47;22.20;;;14.40;;
4424;SDS011;2225;53.568;13.266;2023-01-29T03:18:39;26.47;;;15.50;;
4424;SDS011;2225;53.568;13.266;2023-01-29T03:21:18;27.27;;;16.23;;
4424;SDS011;2225;53.568;13.266;2023-01-29T03:24:10;29.50;;;16.20;;
4424;SDS011;2225;53.568;13.266;2023-01-29T03:27:00;27.57;;;16.43;;
4424;SDS011;2225;53.568;13.266;2023-01-29T03:29:49;29.80;;;16.87;;
4424;SDS011;2225;53.568;13.266;2023-01-29T03:32:45;32.93;;;16.37;;
4424;SDS011;2225;53.568;13.266;2023-01-29T03:35:15;27.20;;;16.60;;
4424;SDS011;2225;53.568;13.266;2023-01-29T03:38:03;28.10;;;16.07;;
4424;SDS011;2225;53.568;13.266;2023-01-29T03:40:45;28.57;;;16.37;;
4424;SDS011;2225;53.568;13.266;2023-01-29T03:43:24;25.53;;;15.73;;
4424;SDS011;2225;53.568;13.266;2023-01-29T03:52:42;25.17;;;14.73;;
4424;SDS011;2225;53.568;13.266;2023-01-29T03:55:24;29.10;;;15.80;;
4424;SDS011;2225;53.568;13.266;2023-01-29T03:58:15;25.70;;;15.70;;
4424;SDS011;2225;53.568;13.266;2023-01-29T04:00:52;28.87;;;15.63;;
4424;SDS011;2225;53.568;13.266;2023-01-29T04:06:35;25.30;;;15.57;;
4424;SDS011;2225;53.568;13.266;2023-01-29T04:09:11;23.93;;;14.23;;
4424;SDS011;2225;53.568;13.266;2023-01-29T04:12:09;25.80;;;14.90;;
4424;SDS011;2225;53.568;13.266;2023-01-29T04:14:40;29.60;;;16.63;;
4424;SDS011;2225;53.568;13.266;2023-01-29T04:17:13;31.03;;;16.73;;
4424;SDS011;2225;53.568;13.266;2023-01-29T04:20:08;27.30;;;16.03;;
4424;SDS011;2225;53.568;13.266;2023-01-29T04:22:38;27.53;;;16.27;;
4424;SDS011;2225;53.568;13.266;2023-01-29T04:25:11;29.47;;;16.30;;
4424;SDS011;2225;53.568;13.266;2023-01-29T04:27:51;29.40;;;17.50;;
4424;SDS011;2225;53.568;13.266;2023-01-29T04:31:01;25.87;;;16.30;;
4424;SDS011;2225;53.568;13.266;2023-01-29T04:39:30;36.73;;;17.47;;
4424;SDS011;2225;53.568;13.266;2023-01-29T04:42:30;31.63;;;16.83;;
4424;SDS011;2225;53.568;13.266;2023-01-29T04:48:00;24.87;;;15.03;;
4424;SDS011;2225;53.568;13.266;2023-01-29T04:51:24;28.13;;;16.57;;
4424;SDS011;2225;53.568;13.266;2023-01-29T04:54:14;27.80;;;15.80;;
4424;SDS011;2225;53.568;13.266;2023-01-29T04:59:46;29.87;;;18.03;;
4424;SDS011;2225;53.568;13.266;2023-01-29T05:02:20;31.97;;;17.40;;
4424;SDS011;2225;53.568;13.266;2023-01-29T05:04:49;35.07;;;19.07;;
4424;SDS011;2225;53.568;13.266;2023-01-29T05:07:17;31.13;;;17.63;;
4424;SDS011;2225;53.568;13.266;2023-01-29T05:09:46;33.33;;;18.00;;
4424;SDS011;2225;53.568;13.266;2023-01-29T05:12:13;36.40;;;18.10;;
4424;SDS011;2225;53.568;13.266;2023-01-29T05:14:43;33.10;;;18.27;;
4424;SDS011;2225;53.568;13.266;2023-01-29T05:17:15;31.77;;;17.00;;
4424;SDS011;2225;53.568;13.266;2023-01-29T05:19:45;34.60;;;17.37;;
4424;SDS011;2225;53.568;13.266;2023-01-29T05:22:14;29.13;;;16.00;;
4424;SDS011;2225;53.568;13.266;2023-01-29T05:24:43;28.80;;;14.53;;
4424;SDS011;2225;53.568;13.266;2023-01-29T05:27:14;26.80;;;15.40;;
4424;SDS011;2225;53.568;13.266;2023-01-29T05:30:05;30.77;;;16.10;;
4424;SDS011;2225;53.568;13.266;2023-01-29T05:32:33;29.80;;;17.67;;
4424;SDS011;2225;53.568;13.266;2023-01-29T05:35:00;32.43;;;16.37;;
4424;SDS011;2225;53.568;13.266;2023-01-29T05:37:27;30.80;;;17.30;;
4424;SDS011;2225;53.568;13.266;2023-01-29T05:39:54;30.13;;;16.40;;
4424;SDS011;2225;53.568;13.266;2023-01-29T05:42:21;27.87;;;15.70;;
4424;SDS011;2225;53.568;13.266;2023-01-29T05:44:48;34.60;;;17.30;;
4424;SDS011;2225;53.568;13.266;2023-01-29T05:47:18;28.50;;;16.70;;
4424;SDS011;2225;53.568;13.266;2023-01-29T05:49:46;31.67;;;16.70;;
4424;SDS011;2225;53.568;13.266;2023-01-29T05:52:13;36.03;;;16.90;;
4424;SDS011;2225;53.568;13.266;2023-01-29T05:54:40;36.33;;;16.87;;
4424;SDS011;2225;53.568;13.266;2023-01-29T05:57:07;32.20;;;16.50;;
4424;SDS011;2225;53.568;13.266;2023-01-29T05:59:33;31.87;;;18.00;;
4424;SDS011;2225;53.568;13.266;2023-01-29T06:02:00;31.83;;;17.07;;
4424;SDS011;2225;53.568;13.266;2023-01-29T06:04:27;39.33;;;20.23;;
4424;SDS011;2225;53.568;13.266;2023-01-29T06:06:54;36.90;;;18.57;;
4424;SDS011;2225;53.568;13.266;2023-01-29T06:09:21;40.33;;;20.37;;
4424;SDS011;2225;53.568;13.266;2023-01-29T06:11:48;35.30;;;19.50;;
4424;SDS011;2225;53.568;13.266;2023-01-29T06:14:15;39.43;;;21.10;;
4424;SDS011;2225;53.568;13.266;2023-01-29T06:16:42;40.00;;;20.03;;
4424;SDS011;2225;53.568;13.266;2023-01-29T06:19:09;34.33;;;18.80;;
4424;SDS011;2225;53.568;13.266;2023-01-29T06:21:35;39.20;;;20.03;;
4424;SDS011;2225;53.568;13.266;2023-01-29T06:24:03;41.20;;;20.83;;
4424;SDS011;2225;53.568;13.266;2023-01-29T06:26:30;35.30;;;20.47;;
4424;SDS011;2225;53.568;13.266;2023-01-29T06:28:57;30.93;;;17.03;;
4424;SDS011;2225;53.568;13.266;2023-01-29T06:31:24;36.63;;;20.33;;
4424;SDS011;2225;53.568;13.266;2023-01-29T06:34:04;36.73;;;19.83;;
4424;SDS011;2225;53.568;13.266;2023-01-29T06:36:32;36.13;;;19.33;;
4424;SDS011;2225;53.568;13.266;2023-01-29T06:39:01;36.03;;;19.87;;
4424;SDS011;2225;53.568;13.266;2023-01-29T06:41:28;39.47;;;18.20;;
4424;SDS011;2225;53.568;13.266;2023-01-29T06:43:55;35.03;;;16.87;;
4424;SDS011;2225;53.568;13.266;2023-01-29T06:46:22;34.37;;;17.03;;
4424;SDS011;2225;53.568;13.266;2023-01-29T06:48:49;36.37;;;19.40;;
4424;SDS011;2225;53.568;13.266;2023-01-29T06:51:16;34.83;;;18.77;;
4424;SDS011;2225;53.568;13.266;2023-01-29T06:53:43;37.30;;;19.40;;
4424;SDS011;2225;53.568;13.266;2023-01-29T06:56:11;34.23;;;18.13;;
4424;SDS011;2225;53.568;13.266;2023-01-29T06:58:38;30.23;;;17.83;;
4424;SDS011;2225;53.568;13.266;2023-01-29T07:01:09;34.50;;;17.70;;
4424;SDS011;2225;53.568;13.266;2023-01-29T07:03:50;31.50;;;17.43;;
4424;SDS011;2225;53.568;13.266;2023-01-29T07:06:17;35.07;;;16.67;;
4424;SDS011;2225;53.568;13.266;2023-01-29T07:08:44;32.33;;;16.70;;
4424;SDS011;2225;53.568;13.266;2023-01-29T07:11:11;32.43;;;17.10;;
4424;SDS011;2225;53.568;13.266;2023-01-29T07:13:38;30.03;;;15.83;;
4424;SDS011;2225;53.568;13.266;2023-01-29T07:16:05;31.77;;;16.30;;
4424;SDS011;2225;53.568;13.266;2023-01-29T07:18:32;33.50;;;17.27;;
4424;SDS011;2225;53.568;13.266;2023-01-29T07:21:02;33.43;;;18.33;;
4424;SDS011;2225;53.568;13.266;2023-01-29T07:23:31;32.90;;;17.27;;
4424;SDS011;2225;53.568;13.266;2023-01-29T07:26:03;30.40;;;15.20;;
4424;SDS011;2225;53.568;13.266;2023-01-29T07:28:34;31.73;;;15.90;;
4424;SDS011;2225;53.568;13.266;2023-01-29T07:31:03;27.33;;;14.30;;
4424;SDS011;2225;53.568;13.266;2023-01-29T07:33:30;31.70;;;16.80;;
4424;SDS011;2225;53.568;13.266;2023-01-29T07:35:57;32.27;;;16.80;;
4424;SDS011;2225;53.568;13.266;2023-01-29T07:38:24;25.80;;;15.10;;
4424;SDS011;2225;53.568;13.266;2023-01-29T07:40:51;25.33;;;14.57;;
4424;SDS011;2225;53.568;13.266;2023-01-29T07:43:18;32.00;;;16.40;;
4424;SDS011;2225;53.568;13.266;2023-01-29T07:45:45;34.70;;;17.53;;
4424;SDS011;2225;53.568;13.266;2023-01-29T07:48:12;31.67;;;17.93;;
4424;SDS011;2225;53.568;13.266;2023-01-29T07:50:39;30.73;;;17.33;;
4424;SDS011;2225;53.568;13.266;2023-01-29T07:53:08;34.83;;;18.17;;
4424;SDS011;2225;53.568;13.266;2023-01-29T07:55:42;32.80;;;16.77;;
4424;SDS011;2225;53.568;13.266;2023-01-29T07:58:10;35.90;;;18.80;;
4424;SDS011;2225;53.568;13.266;2023-01-29T08:00:37;35.60;;;18.40;;
4424;SDS011;2225;53.568;13.266;2023-01-29T08:03:06;47.57;;;21.37;;
4424;SDS011;2225;53.568;13.266;2023-01-29T08:05:37;41.30;;;21.60;;
4424;SDS011;2225;53.568;13.266;2023-01-29T08:08:04;38.50;;;17.53;;
4424;SDS011;2225;53.568;13.266;2023-01-29T08:10:33;35.50;;;18.33;;
4424;SDS011;2225;53.568;13.266;2023-01-29T08:13:02;33.40;;;17.63;;
4424;SDS011;2225;53.568;13.266;2023-01-29T08:15:30;34.77;;;19.00;;
4424;SDS011;2225;53.568;13.266;2023-01-29T08:17:59;39.03;;;18.00;;
4424;SDS011;2225;53.568;13.266;2023-01-29T08:20:28;39.47;;;18.10;;
4424;SDS011;2225;53.568;13.266;2023-01-29T08:23:03;35.57;;;19.03;;
4424;SDS011;2225;53.568;13.266;2023-01-29T08:25:33;32.60;;;17.67;;
4424;SDS011;2225;53.568;13.266;2023-01-29T08:28:01;34.10;;;18.33;;
4424;SDS011;2225;53.568;13.266;2023-01-29T08:30:31;31.27;;;17.17;;
4424;SDS011;2225;53.568;13.266;2023-01-29T08:33:00;28.30;;;15.70;;
4424;SDS011;2225;53.568;13.266;2023-01-29T08:35:29;31.80;;;17.53;;
4424;SDS011;2225;53.568;13.266;2023-01-29T08:37:59;29.67;;;16.47;;
4424;SDS011;2225;53.568;13.266;2023-01-29T08:40:29;29.43;;;15.07;;
4424;SDS011;2225;53.568;13.266;2023-01-29T08:42:59;30.00;;;16.60;;
4424;SDS011;2225;53.568;13.266;2023-01-29T08:45:32;27.30;;;15.37;;
4424;SDS011;2225;53.568;13.266;2023-01-29T08:48:01;30.23;;;14.97;;
4424;SDS011;2225;53.568;13.266;2023-01-29T08:50:28;25.70;;;14.67;;
4424;SDS011;2225;53.568;13.266;2023-01-29T08:52:57;27.40;;;15.13;;
4424;SDS011;2225;53.568;13.266;2023-01-29T08:55:25;26.60;;;15.17;;
4424;SDS011;2225;53.568;13.266;2023-01-29T08:57:52;28.10;;;15.87;;
4424;SDS011;2225;53.568;13.266;2023-01-29T09:00:20;33.83;;;17.73;;
4424;SDS011;2225;53.568;13.266;2023-01-29T09:02:47;28.73;;;15.00;;
4424;SDS011;2225;53.568;13.266;2023-01-29T09:05:14;29.80;;;16.10;;
4424;SDS011;2225;53.568;13.266;2023-01-29T09:07:41;27.27;;;15.03;;
4424;SDS011;2225;53.568;13.266;2023-01-29T09:10:08;31.33;;;16.70;;
4424;SDS011;2225;53.568;13.266;2023-01-29T09:12:37;29.70;;;17.57;;
4424;SDS011;2225;53.568;13.266;2023-01-29T09:15:04;30.10;;;16.63;;
4424;SDS011;2225;53.568;13.266;2023-01-29T09:17:31;32.53;;;17.53;;
4424;SDS011;2225;53.568;13.266;2023-01-29T09:19:58;34.30;;;15.77;;
4424;SDS011;2225;53.568;13.266;2023-01-29T09:22:25;33.47;;;17.03;;
4424;SDS011;2225;53.568;13.266;2023-01-29T09:24:52;32.70;;;15.40;;
4424;SDS011;2225;53.568;13.266;2023-01-29T09:27:19;31.67;;;17.40;;
4424;SDS011;2225;53.568;13.266;2023-01-29T09:29:46;30.60;;;17.37;;
4424;SDS011;2225;53.568;13.266;2023-01-29T09:32:13;32.03;;;16.20;;
4424;SDS011;2225;53.568;13.266;2023-01-29T09:34:44;28.30;;;16.57;;
4424;SDS011;2225;53.568;13.266;2023-01-29T09:37:11;30.23;;;15.07;;
4424;SDS011;2225;53.568;13.266;2023-01-29T09:39:38;29.93;;;16.70;;
4424;SDS011;2225;53.568;13.266;2023-01-29T09:44:57;22.80;;;14.57;;
4424;SDS011;2225;53.568;13.266;2023-01-29T09:47:32;24.43;;;14.23;;
4424;SDS011;2225;53.568;13.266;2023-01-29T09:50:05;27.60;;;14.67;;
4424;SDS011;2225;53.568;13.266;2023-01-29T09:52:37;21.23;;;12.50;;
4424;SDS011;2225;53.568;13.266;2023-01-29T09:55:21;22.40;;;14.10;;
4424;SDS011;2225;53.568;13.266;2023-01-29T09:58:19;20.40;;;11.80;;
4424;SDS011;2225;53.568;13.266;2023-01-29T10:06:20;16.30;;;10.87;;
4424;SDS011;2225;53.568;13.266;2023-01-29T10:15:12;21.80;;;10.97;;
4424;SDS011;2225;53.568;13.266;2023-01-29T10:23:28;17.23;;;10.40;;
4424;SDS011;2225;53.568;13.266;2023-01-29T10:26:00;14.07;;;9.20;;
4424;SDS011;2225;53.568;13.266;2023-01-29T10:28:30;15.20;;;9.67;;
4424;SDS011;2225;53.568;13.266;2023-01-29T10:31:09;13.83;;;8.37;;
4424;SDS011;2225;53.568;13.266;2023-01-29T10:33:51;16.73;;;8.50;;
4424;SDS011;2225;53.568;13.266;2023-01-29T10:36:35;16.23;;;8.90;;
4424;SDS011;2225;53.568;13.266;2023-01-29T10:39:11;13.77;;;9.07;;
4424;SDS011;2225;53.568;13.266;2023-01-29T10:45:02;12.30;;;7.93;;
4424;SDS011;2225;53.568;13.266;2023-01-29T10:50:43;11.03;;;7.00;;
4424;SDS011;2225;53.568;13.266;2023-01-29T10:59:27;12.90;;;8.13;;
4424;SDS011;2225;53.568;13.266;2023-01-29T11:02:17;14.50;;;9.43;;
4424;SDS011;2225;53.568;13.266;2023-01-29T11:04:47;12.80;;;8.27;;
4424;SDS011;2225;53.568;13.266;2023-01-29T11:07:15;11.87;;;7.20;;
4424;SDS011;2225;53.568;13.266;2023-01-29T11:09:54;12.00;;;7.40;;
4424;SDS011;2225;53.568;13.266;2023-01-29T11:12:33;10.20;;;7.03;;
4424;SDS011;2225;53.568;13.266;2023-01-29T11:20:39;15.57;;;8.00;;
4424;SDS011;2225;53.568;13.266;2023-01-29T11:23:31;14.67;;;8.20;;
4424;SDS011;2225;53.568;13.266;2023-01-29T11:25:59;14.63;;;9.17;;
4424;SDS011;2225;53.568;13.266;2023-01-29T11:28:36;13.57;;;8.53;;
4424;SDS011;2225;53.568;13.266;2023-01-29T11:31:22;13.07;;;9.00;;
4424;SDS011;2225;53.568;13.266;2023-01-29T11:33:53;15.70;;;9.50;;
4424;SDS011;2225;53.568;13.266;2023-01-29T11:36:36;23.40;;;8.90;;
4424;SDS011;2225;53.568;13.266;2023-01-29T11:39:10;16.97;;;9.83;;
4424;SDS011;2225;53.568;13.266;2023-01-29T11:41:48;20.13;;;9.20;;
4424;SDS011;2225;53.568;13.266;2023-01-29T11:44:19;13.50;;;9.60;;
4424;SDS011;2225;53.568;13.266;2023-01-29T11:46:47;16.83;;;9.73;;
4424;SDS011;2225;53.568;13.266;2023-01-29T11:49:27;17.53;;;11.50;;
4424;SDS011;2225;53.568;13.266;2023-01-29T11:52:03;19.40;;;11.33;;
4424;SDS011;2225;53.568;13.266;2023-01-29T11:54:35;19.00;;;11.20;;
4424;SDS011;2225;53.568;13.266;2023-01-29T11:57:18;45.17;;;26.00;;
4424;SDS011;2225;53.568;13.266;2023-01-29T12:00:25;20.27;;;11.73;;
4424;SDS011;2225;53.568;13.266;2023-01-29T12:03:03;20.90;;;10.73;;
4424;SDS011;2225;53.568;13.266;2023-01-29T12:05:53;21.23;;;13.60;;
4424;SDS011;2225;53.568;13.266;2023-01-29T12:08:33;20.17;;;12.50;;
4424;SDS011;2225;53.568;13.266;2023-01-29T12:11:07;20.90;;;12.90;;
4424;SDS011;2225;53.568;13.266;2023-01-29T12:13:41;21.53;;;13.33;;
4424;SDS011;2225;53.568;13.266;2023-01-29T12:16:13;20.90;;;13.83;;
4424;SDS011;2225;53.568;13.266;2023-01-29T12:18:52;25.90;;;14.90;;
4424;SDS011;2225;53.568;13.266;2023-01-29T12:21:45;23.80;;;14.37;;
4424;SDS011;2225;53.568;13.266;2023-01-29T12:27:24;24.23;;;13.90;;
4424;SDS011;2225;53.568;13.266;2023-01-29T12:30:06;24.30;;;14.93;;
4424;SDS011;2225;53.568;13.266;2023-01-29T12:35:50;23.87;;;14.30;;
4424;SDS011;2225;53.568;13.266;2023-01-29T12:38:24;24.40;;;16.40;;
4424;SDS011;2225;53.568;13.266;2023-01-29T12:40:52;22.60;;;14.90;;
4424;SDS011;2225;53.568;13.266;2023-01-29T12:43:37;23.60;;;14.50;;
4424;SDS011;2225;53.568;13.266;2023-01-29T12:46:13;25.40;;;15.70;;
4424;SDS011;2225;53.568;13.266;2023-01-29T12:48:49;26.40;;;17.20;;
4424;SDS011;2225;53.568;13.266;2023-01-29T12:51:24;27.73;;;16.03;;
4424;SDS011;2225;53.568;13.266;2023-01-29T12:54:14;26.07;;;16.63;;
4424;SDS011;2225;53.568;13.266;2023-01-29T12:56:45;26.97;;;15.53;;
4424;SDS011;2225;53.568;13.266;2023-01-29T13:01:58;25.27;;;17.17;;
4424;SDS011;2225;53.568;13.266;2023-01-29T13:04:42;27.17;;;14.90;;
4424;SDS011;2225;53.568;13.266;2023-01-29T13:07:16;27.80;;;17.20;;
4424;SDS011;2225;53.568;13.266;2023-01-29T13:09:52;26.23;;;14.77;;
4424;SDS011;2225;53.568;13.266;2023-01-29T13:12:29;24.20;;;14.40;;
4424;SDS011;2225;53.568;13.266;2023-01-29T13:15:14;24.77;;;15.47;;
4424;SDS011;2225;53.568;13.266;2023-01-29T13:17:53;25.00;;;15.30;;
4424;SDS011;2225;53.568;13.266;2023-01-29T13:20:29;26.53;;;17.20;;
4424;SDS011;2225;53.568;13.266;2023-01-29T13:23:05;25.17;;;16.03;;
4424;SDS011;2225;53.568;13.266;2023-01-29T13:25:50;25.53;;;15.00;;
4424;SDS011;2225;53.568;13.266;2023-01-29T13:28:18;25.00;;;15.93;;
4424;SDS011;2225;53.568;13.266;2023-01-29T13:31:08;28.30;;;15.77;;
4424;SDS011;2225;53.568;13.266;2023-01-29T13:33:36;25.33;;;16.23;;
4424;SDS011;2225;53.568;13.266;2023-01-29T13:36:06;30.60;;;15.20;;
4424;SDS011;2225;53.568;13.266;2023-01-29T13:38:42;26.73;;;16.50;;
4424;SDS011;2225;53.568;13.266;2023-01-29T13:41:10;23.00;;;13.97;;
4424;SDS011;2225;53.568;13.266;2023-01-29T13:43:38;26.93;;;17.20;;
4424;SDS011;2225;53.568;13.266;2023-01-29T13:46:11;28.40;;;16.43;;
4424;SDS011;2225;53.568;13.266;2023-01-29T13:48:47;25.87;;;16.20;;
4424;SDS011;2225;53.568;13.266;2023-01-29T13:51:17;30.03;;;17.37;;
4424;SDS011;2225;53.568;13.266;2023-01-29T13:53:51;29.60;;;17.97;;
4424;SDS011;2225;53.568;13.266;2023-01-29T13:58:59;34.90;;;20.20;;
4424;SDS011;2225;53.568;13.266;2023-01-29T14:06:45;33.73;;;19.60;;
4424;SDS011;2225;53.568;13.266;2023-01-29T14:12:02;31.77;;;18.63;;
4424;SDS011;2225;53.568;13.266;2023-01-29T14:17:13;35.90;;;21.60;;
4424;SDS011;2225;53.568;13.266;2023-01-29T14:19:48;37.17;;;21.53;;
4424;SDS011;2225;53.568;13.266;2023-01-29T14:22:22;37.13;;;21.07;;
4424;SDS011;2225;53.568;13.266;2023-01-29T14:24:52;33.90;;;20.80;;
4424;SDS011;2225;53.568;13.266;2023-01-29T14:27:29;32.13;;;18.17;;
4424;SDS011;2225;53.568;13.266;2023-01-29T14:30:00;31.03;;;19.07;;
4424;SDS011;2225;53.568;13.266;2023-01-29T14:32:32;32.53;;;18.87;;
4424;SDS011;2225;53.568;13.266;2023-01-29T14:35:03;34.70;;;19.80;;
4424;SDS011;2225;53.568;13.266;2023-01-29T14:37:44;28.70;;;18.17;;
4424;SDS011;2225;53.568;13.266;2023-01-29T14:42:55;30.30;;;19.40;;
4424;SDS011;2225;53.568;13.266;2023-01-29T14:45:34;37.23;;;19.90;;
4424;SDS011;2225;53.568;13.266;2023-01-29T14:50:38;30.77;;;17.93;;
4424;SDS011;2225;53.568;13.266;2023-01-29T14:56:10;31.80;;;16.83;;
4424;SDS011;2225;53.568;13.266;2023-01-29T14:58:43;29.30;;;17.93;;
4424;SDS011;2225;53.568;13.266;2023-01-29T15:03:59;30.43;;;17.30;;
4424;SDS011;2225;53.568;13.266;2023-01-29T15:06:40;31.03;;;17.80;;
4424;SDS011;2225;53.568;13.266;2023-01-29T15:09:14;30.87;;;17.80;;
4424;SDS011;2225;53.568;13.266;2023-01-29T15:14:58;31.73;;;17.30;;
4424;SDS011;2225;53.568;13.266;2023-01-29T15:17:37;30.53;;;17.20;;
4424;SDS011;2225;53.568;13.266;2023-01-29T15:20:28;27.93;;;16.40;;
4424;SDS011;2225;53.568;13.266;2023-01-29T15:22:59;31.53;;;18.17;;
4424;SDS011;2225;53.568;13.266;2023-01-29T15:25:34;34.23;;;19.83;;
4424;SDS011;2225;53.568;13.266;2023-01-29T15:28:12;37.83;;;20.13;;
4424;SDS011;2225;53.568;13.266;2023-01-29T15:30:40;35.03;;;19.53;;
4424;SDS011;2225;53.568;13.266;2023-01-29T15:33:10;33.93;;;19.97;;
4424;SDS011;2225;53.568;13.266;2023-01-29T15:35:40;34.63;;;21.03;;
4424;SDS011;2225;53.568;13.266;2023-01-29T15:38:15;45.90;;;21.63;;
4424;SDS011;2225;53.568;13.266;2023-01-29T15:40:53;38.83;;;21.80;;
4424;SDS011;2225;53.568;13.266;2023-01-29T15:43:29;35.77;;;21.37;;
4424;SDS011;2225;53.568;13.266;2023-01-29T15:46:19;39.37;;;22.73;;
4424;SDS011;2225;53.568;13.266;2023-01-29T15:48:56;37.63;;;21.80;;
4424;SDS011;2225;53.568;13.266;2023-01-29T15:51:26;38.00;;;22.40;;
4424;SDS011;2225;53.568;13.266;2023-01-29T15:53:58;36.90;;;20.93;;
4424;SDS011;2225;53.568;13.266;2023-01-29T15:56:36;34.90;;;21.57;;
4424;SDS011;2225;53.568;13.266;2023-01-29T15:59:07;41.10;;;22.90;;
4424;SDS011;2225;53.568;13.266;2023-01-29T16:01:48;37.20;;;22.23;;
4424;SDS011;2225;53.568;13.266;2023-01-29T16:04:19;43.63;;;23.87;;
4424;SDS011;2225;53.568;13.266;2023-01-29T16:06:52;39.47;;;22.27;;
4424;SDS011;2225;53.568;13.266;2023-01-29T16:09:21;39.33;;;21.40;;
4424;SDS011;2225;53.568;13.266;2023-01-29T16:11:51;45.20;;;23.60;;
4424;SDS011;2225;53.568;13.266;2023-01-29T16:14:21;38.63;;;22.37;;
4424;SDS011;2225;53.568;13.266;2023-01-29T16:16:50;43.23;;;23.90;;
4424;SDS011;2225;53.568;13.266;2023-01-29T16:19:19;37.13;;;22.70;;
4424;SDS011;2225;53.568;13.266;2023-01-29T16:21:57;40.50;;;23.10;;
4424;SDS011;2225;53.568;13.266;2023-01-29T16:24:29;42.03;;;22.90;;
4424;SDS011;2225;53.568;13.266;2023-01-29T16:27:01;39.43;;;23.37;;
4424;SDS011;2225;53.568;13.266;2023-01-29T16:29:39;47.20;;;24.30;;
4424;SDS011;2225;53.568;13.266;2023-01-29T16:32:06;41.80;;;22.33;;
4424;SDS011;2225;53.568;13.266;2023-01-29T16:34:42;40.63;;;23.37;;
4424;SDS011;2225;53.568;13.266;2023-01-29T16:37:17;36.90;;;23.03;;
4424;SDS011;2225;53.568;13.266;2023-01-29T16:39:50;42.10;;;23.83;;
4424;SDS011;2225;53.568;13.266;2023-01-29T16:42:19;39.13;;;22.40;;
4424;SDS011;2225;53.568;13.266;2023-01-29T16:45:00;43.43;;;24.70;;
4424;SDS011;2225;53.568;13.266;2023-01-29T16:47:39;42.10;;;23.60;;
4424;SDS011;2225;53.568;13.266;2023-01-29T16:53:14;39.27;;;22.80;;
4424;SDS011;2225;53.568;13.266;2023-01-29T16:55:47;36.03;;;22.17;;
4424;SDS011;2225;53.568;13.266;2023-01-29T16:58:16;34.83;;;21.87;;
4424;SDS011;2225;53.568;13.266;2023-01-29T17:00:47;37.37;;;22.77;;
4424;SDS011;2225;53.568;13.266;2023-01-29T17:03:22;40.03;;;23.30;;